Detalii statie UNIVERSITATEA AGRICOLA IASI [0000198B]

Toti senzorii

Date Temperatura solului [C]Precipitatii [mm]Voltaj baterie [mV]HC Air temperature [C]HC Relative humidity [%]Punctul de roua [C]ETo [mm]
medieminmaxsumaultimamedieminmaxmediemedieminmedie
2017-06-25 06:00:00 19.9 19.7 20.1 0 7050 17.17 16.03 18.16 100 17.1 16
2017-06-25 07:00:00 20.1 20 20.3 0 7304 20.25 17.84 22.42 100 20.2 17.8
2017-06-25 08:00:00 20.4 20.2 20.8 0 7304 23.53 22.61 24.44 100 23.4 22.6
2017-06-25 09:00:00 21.2 20.8 21.5 0 7304 25.26 24.51 25.82 100 25.2 24.5
2017-06-25 10:00:00 22.1 21.6 22.7 0 7304 26.04 25.7 26.43 100 26 25.7
2017-06-25 11:00:00 23 22.7 23.4 0 7304 27.34 26.5 27.99 100 27.3 26.5
2017-06-25 12:00:00 23.8 23.5 24.2 0 7254 28.05 27.39 28.43 99.77 27.9 27.3
2017-06-25 13:00:00 24.6 24.3 24.9 0 7304 28.4 28.12 28.71 99.71 28.2 28
2017-06-25 14:00:00 25 24.8 25.2 0 7304 28.92 28.43 29.43 98.85 28.6 28.1
2017-06-25 15:00:00 25.3 25.2 25.5 0 7304 29.39 28.96 29.7 97.65 28.8 28
2017-06-25 16:00:00 25.5 25.3 25.6 0 7176 29.59 29.29 29.95 90.52 27.7 27.1
2017-06-25 17:00:00 25.5 25.4 25.8 0 7158 29.46 29.26 29.68 91.47 27.7 27
2017-06-25 18:00:00 25.6 25.5 25.9 0 7148 28.92 28.32 29.31 96.11 28.1 27.4
2017-06-25 19:00:00 25.5 25.3 25.6 0 7284 27.8 26.93 28.55 99.92 27.7 26.9
2017-06-25 20:00:00 25 24.8 25.4 0 6972 25.91 25.09 26.77 100 25.8 25
2017-06-25 21:00:00 24.5 24.4 24.8 0 6952 23.94 23.04 24.74 100 23.9 23
2017-06-25 22:00:00 24 23.9 24.3 0 6942 23.02 22.74 23.35 100 22.9 22.7
2017-06-25 23:00:00 23.6 23.4 23.9 0 6932 22.66 22.42 22.89 100 22.6 22.4
2017-06-26 00:00:00 23.3 23.2 23.5 0 6922 22.9 22.3 23.4 100 22.8 22.3
2017-06-26 01:00:00 23 22.9 23.3 0 6922 22.09 21.04 23.33 100 22 21
2017-06-26 02:00:00 22.7 22.5 23 0 6914 21.45 20.38 22.24 100 21.4 20.3
2017-06-26 03:00:00 22.4 22.3 22.6 0 6904 20.45 19.73 21.48 100 20.3 19.7
2017-06-26 04:00:00 22.1 22 22.3 0 6904 19.38 18.66 20.04 100 19.3 18.6
2017-06-26 05:00:00 21.9 21.8 22 0 6922 18.86 18.55 19.24 100 18.8 18.5
2017-06-26 06:00:00 21.7 21.5 22 0 7070 20.03 19.29 21.17 100 19.9 19.2
2017-06-26 07:00:00 22 21.9 22.2 0 7304 22.6 21.19 23.87 100 22.5 21.1
2017-06-26 08:00:00 22.3 22.2 22.6 0 7304 24.52 23.86 25.47 100 24.4 23.8
2017-06-26 09:00:00 22.9 22.7 23.3 0 7304 26 25.41 26.56 100 25.9 25.4
2017-06-26 10:00:00 23.7 23.2 24.3 0 7304 27.47 26.38 28.38 100 27.4 26.3
2017-06-26 11:00:00 24.7 24.4 25 0 7304 28.8 28.2 29.36 100 28.7 28.2
2017-06-26 12:00:00 25.3 24.9 25.8 0 7294 29.85 29.38 30.4 100 29.8 29.3
2017-06-26 13:00:00 26.1 25.8 26.5 0 7294 30.87 30.2 31.7 100 30.8 30.2
2017-06-26 14:00:00 26.5 26.4 26.8 0 7304 31.17 30.97 31.63 99.09 30.9 30.1
2017-06-26 15:00:00 26.7 26.6 26.9 0 7294 31.4 31.28 31.54 94.73 30.3 29.7
2017-06-26 16:00:00 26.8 26.8 27 0 7148 31.48 31.29 31.66 95.41 30.5 29.9
2017-06-26 17:00:00 26.9 26.9 27.1 0 7148 31.02 30.67 31.47 96.56 30.2 29.7
2017-06-26 18:00:00 26.8 26.6 27.2 0 7284 29.77 28.44 30.69 99.17 29.5 28.4
2017-06-26 19:00:00 26.4 26.1 26.7 0 7080 27.75 27.17 28.28 100 27.6 27.1
2017-06-26 20:00:00 25.9 25.7 26.2 0 6942 26.61 25.71 26.93 100 26.5 25.7